Terminal Aerodrome Forecast
Issued by NWS Wilmington, OH

Home | Current Version | Previous Version | Text Only | Print | Product List | Glossary On
Versions: 1 2 3 4 5 6 7 8 9 10 11 12 13 14 15 16 17 18
000
FTUS41 KILN 271100 RRA
TAFCVG
TAF
KCVG 271141Z 2712/2818 18007KT P6SM OVC060
      TEMPO 2713/2715 5SM -SHRA BKN040
     FM271700 21009KT P6SM OVC035
      TEMPO 2723/2801 3SM -SHRA SCT008 OVC015
     FM280100 25006KT 5SM -SHRA SCT006 OVC018
     FM280900 34006KT P6SM VCSH SCT008 OVC015
     FM281400 01007KT P6SM VCSH OVC015=

USA.gov is the U.S. government's official web portal to all federal, state and local government web resources and services.